Pos.Doss.NomPrenomTempsVit.Moy.Allure Pos. cat�gCat�gorie Points Club
1 618 BEAUJEAN AXEL 00:08:48 16.36 00:03:40 1Garcons moins de 12 ans 1000
2 8 WEBER ELIOTT 00:08:56 16.12 00:03:43 2Garcons moins de 12 ans 933 HAUTES-FAGNES
3 736 BRYSAE QUENTIN 00:09:59 14.42 00:04:010 ?
4 200 BOURS SYLVAIN 00:10:05 14.28 00:04:12 3Garcons moins de 12 ans 867
5 656 BOTTE THOMAS 00:10:06 14.26 00:04:13 ?
6 81 HACKING NOAM 00:11:04 13.01 00:04:37 4Garcons moins de 12 ans 800 PAS DE CLUB
7 572 ARNON PORTA GABRIEL 00:11:24 12.63 00:04:45 5Garcons moins de 12 ans 733
8 767 BASTAGNE FLORENT 00:11:24 12.63 00:04:45 6Garcons moins de 12 ans 667
9 269 JULIN MIA 00:11:25 12.61 00:04:45 1Filles moins de 12 ans 600 ATHLETISME MEHAGNE CLUB
10 575 BASTAGNE JULIE 00:11:28 12.56 00:04:47 2Filles moins de 12 ans 533
11 614 BOTTE JULIE 00:11:53 12.12 00:04:57 3Filles moins de 12 ans 467
12 405 KERCKHOVE AARON 00:11:57 12.05 00:04:59 7Garcons moins de 12 ans 400 PAS DE CLUB
13 695 DENIS ANTOINE 00:12:07 11.88 00:05:03 8Garcons moins de 12 ans 333
14 692 MADDELEIN ISIC 00:12:20 11.68 00:05:08 4Filles moins de 12 ans 267
15 556 JACQUEMIN OSCAR 00:12:36 11.43 00:05:15 9Garcons moins de 12 ans 200
16 530 FOURNEAU ADRIEN 00:12:53 11.18 00:05:22 ?
17 529 FOURNEAU ROBIN 00:12:53 11.18 00:05:22 10Garcons moins de 12 ans 133
18 508 GERMAY HARRY 00:14:30 9.93 00:06:03 ?
19 539 DIO ANDREA 00:14:31 9.92 00:06:03 ? JIA
20 581 HOEL YSALINE 00:17:19 8.32 00:07:13 5Filles moins de 12 ans 67
21 717 NESPOLA VALRIE 00:17:19 8.32 00:07:13 ?
Cointe 2022
Distance : 2.4 kms
21 coureurs